Time;durP1;ratioP1;P1;durP2;ratioP2;P2;SDS_P1;SDS_P2;PMS_P1;PMS_P2;Temp;Humidity;BMP_temperature;BMP_pressure;BME280_temperature;BME280_humidity;BME280_pressure;Samples;Min_cycle;Max_cycle;Signal;HPM_P1;HPM_P2
2021/03/11 00:00:25;;;;;;;7.35;4.72;;;10.50;90.10;;;;;;5012631;28;20452;-70
2021/03/11 00:02:51;;;;;;;5.20;3.67;;;10.60;94.10;;;;;;5012756;28;20388;-69
2021/03/11 00:05:18;;;;;;;6.63;4.10;;;10.90;90.70;;;;;;5015464;28;20457;-69
2021/03/11 00:07:44;;;;;;;4.78;2.90;;;10.70;95.00;;;;;;5031356;28;20767;-69
2021/03/11 00:10:11;;;;;;;5.35;2.72;;;11.00;92.40;;;;;;5032339;28;20405;-69
2021/03/11 00:12:38;;;;;;;3.30;2.60;;;10.80;89.00;;;;;;5031538;28;20379;-69
2021/03/11 00:15:07;;;;;;;3.67;2.90;;;11.00;92.80;;;;;;5032299;28;20375;-69
2021/03/11 00:17:33;;;;;;;3.78;2.90;;;10.50;88.00;;;;;;5031359;28;20421;-69
2021/03/11 00:19:59;;;;;;;3.55;2.70;;;10.70;90.30;;;;;;5032309;28;20464;-69
2021/03/11 00:22:24;;;;;;;4.03;3.00;;;11.30;90.00;;;;;;5031424;28;20470;-74
2021/03/11 00:24:50;;;;;;;3.27;2.60;;;10.60;90.20;;;;;;5030500;28;20832;-69
2021/03/11 00:27:16;;;;;;;4.53;3.00;;;11.20;88.20;;;;;;5032161;28;20470;-69
2021/03/11 00:29:41;;;;;;;4.53;2.47;;;10.80;86.40;;;;;;5030880;28;20399;-69
2021/03/11 00:32:07;;;;;;;4.07;2.90;;;11.00;93.30;;;;;;5021542;28;20400;-69
2021/03/11 00:34:32;;;;;;;4.93;2.77;;;11.00;87.30;;;;;;5011257;28;20408;-69
2021/03/11 00:36:58;;;;;;;6.60;3.27;;;11.30;85.80;;;;;;5010505;28;20393;-69
2021/03/11 00:39:24;;;;;;;4.77;3.30;;;10.80;92.00;;;;;;5011451;28;20457;-74
2021/03/11 00:41:49;;;;;;;4.10;3.00;;;11.20;84.90;;;;;;5026801;28;20753;-69
2021/03/11 00:44:15;;;;;;;5.80;3.90;;;10.90;85.20;;;;;;5011965;28;20377;-69
2021/03/11 00:46:41;;;;;;;5.15;3.80;;;11.00;89.70;;;;;;5011134;28;20381;-69
2021/03/11 00:49:06;;;;;;;6.13;4.05;;;11.20;83.60;;;;;;5011686;28;20475;-69
2021/03/11 00:51:32;;;;;;;6.13;4.47;;;11.20;88.70;;;;;;5010876;28;20409;-69
2021/03/11 00:53:58;;;;;;;5.43;4.03;;;10.90;90.10;;;;;;5010225;28;20388;-69
2021/03/11 00:56:23;;;;;;;6.40;4.25;;;11.20;82.70;;;;;;5011703;28;20443;-74
2021/03/11 00:58:49;;;;;;;5.50;3.65;;;11.20;84.10;;;;;;5011159;28;20429;-69
2021/03/11 01:01:15;;;;;;;6.40;4.22;;;11.10;90.20;;;;;;5010310;28;20405;-69
2021/03/11 01:03:41;;;;;;;6.70;4.20;;;11.30;82.20;;;;;;5010574;28;20377;-68
2021/03/11 01:06:07;;;;;;;5.68;4.25;;;9.80;81.30;;;;;;5011579;28;20395;-69
2021/03/11 01:08:33;;;;;;;7.55;5.20;;;11.20;90.20;;;;;;5010704;28;20385;-69
2021/03/11 01:10:58;;;;;;;5.30;3.67;;;11.10;83.80;;;;;;5011663;28;20711;-69
2021/03/11 01:13:24;;;;;;;6.10;4.55;;;10.80;81.30;;;;;;5011644;28;20735;-73
2021/03/11 01:15:50;;;;;;;3.85;3.40;;;11.20;84.10;;;;;;5011314;28;20454;-68
2021/03/11 01:18:16;;;;;;;6.53;5.00;;;11.00;90.00;;;;;;5011495;28;20389;-69
2021/03/11 01:20:42;;;;;;;6.75;4.20;;;10.90;81.00;;;;;;5009268;28;20420;-69
2021/03/11 01:23:08;;;;;;;6.75;4.18;;;11.00;81.90;;;;;;5009934;28;20404;-69
2021/03/11 01:25:34;;;;;;;6.30;4.82;;;10.80;80.00;;;;;;5010566;28;20389;-69
2021/03/11 01:28:00;;;;;;;6.00;4.80;;;11.30;81.40;;;;;;5011306;28;20385;-69
2021/03/11 01:30:26;;;;;;;7.20;4.78;;;11.10;81.90;;;;;;5011266;28;20746;-73
2021/03/11 01:32:51;;;;;;;6.90;4.10;;;11.10;81.70;;;;;;5010544;28;20385;-69
2021/03/11 01:35:17;;;;;;;5.93;3.97;;;11.20;85.00;;;;;;5011000;28;20454;-69
2021/03/11 01:37:43;;;;;;;4.55;3.80;;;10.90;85.90;;;;;;5009856;28;20409;-69
2021/03/11 01:40:09;;;;;;;5.40;3.70;;;11.40;83.40;;;;;;5010743;28;20420;-67
2021/03/11 01:42:36;;;;;;;6.65;3.72;;;11.20;83.10;;;;;;5010238;28;20416;-68
2021/03/11 01:45:04;;;;;;;5.25;4.20;;;11.20;83.60;;;;;;5010968;28;20377;-68
2021/03/11 01:47:30;;;;;;;7.97;3.50;;;10.90;82.20;;;;;;5010138;28;20391;-71
2021/03/11 01:49:56;;;;;;;6.33;3.13;;;10.90;82.60;;;;;;5010975;28;20456;-67
2021/03/11 01:52:21;;;;;;;6.57;4.30;;;11.20;83.30;;;;;;5010818;28;20380;-67
2021/03/11 01:54:47;;;;;;;5.70;3.60;;;11.30;91.60;;;;;;5010054;28;20393;-67
2021/03/11 01:57:13;;;;;;;5.50;3.60;;;11.30;84.90;;;;;;5010892;28;20412;-67
2021/03/11 01:59:39;;;;;;;5.80;4.00;;;11.20;84.10;;;;;;5009777;28;20428;-67
2021/03/11 02:02:05;;;;;;;7.45;4.32;;;11.00;84.50;;;;;;5010838;28;20868;-67
2021/03/11 02:04:31;;;;;;;6.38;4.00;;;11.00;92.10;;;;;;5010230;28;20408;-73
2021/03/11 02:06:56;;;;;;;6.43;4.27;;;11.20;85.20;;;;;;5010626;28;20870;-67
2021/03/11 02:09:22;;;;;;;6.80;4.00;;;11.00;84.80;;;;;;5010620;28;20388;-67
2021/03/11 02:12:12;;;;;;;7.50;4.07;;;11.40;92.50;;;;;;5009782;28;20373;-67
2021/03/11 02:15:03;;;;;;;4.80;3.60;;;10.80;80.00;;;;;;5009897;28;20389;-68
2021/03/11 02:17:46;;;;;;;5.22;3.70;;;10.80;80.80;;;;;;5010082;28;20446;-73
2021/03/11 02:20:30;;;;;;;5.40;3.58;;;10.80;80.60;;;;;;5010540;28;20408;-67
2021/03/11 02:23:02;;;;;;;5.00;3.47;;;10.90;90.40;;;;;;5010086;28;20463;-67
2021/03/11 02:25:48;;;;;;;6.07;3.35;;;10.90;84.10;;;;;;5010382;28;20810;-67
2021/03/11 02:28:32;;;;;;;7.22;3.80;;;;;;;;;;5010201;28;20393;-67
2021/03/11 02:30:58;;;;;;;6.25;3.83;;;10.90;93.90;;;;;;5010475;28;20726;-68
2021/03/11 02:33:26;;;;;;;4.23;2.63;;;10.50;92.10;;;;;;5010406;28;20377;-66
2021/03/11 02:35:54;;;;;;;5.28;2.97;;;10.50;93.10;;;;;;5009221;28;20439;-68
2021/03/11 02:38:21;;;;;;;3.40;2.55;;;10.70;94.30;;;;;;5010433;28;20373;-67
2021/03/11 02:40:49;;;;;;;3.38;2.35;;;10.60;97.30;;;;;;5009144;28;20456;-67
2021/03/11 02:43:16;;;;;;;2.80;2.03;;;10.30;94.40;;;;;;5010321;28;20381;-67
2021/03/11 02:45:42;;;;;;;3.95;2.40;;;11.00;94.40;;;;;;5009487;28;20468;-67
2021/03/11 02:48:10;;;;;;;3.80;3.00;;;10.20;93.90;;;;;;5012570;28;20388;-68
2021/03/11 02:50:38;;;;;;;2.90;2.25;;;10.40;92.60;;;;;;5013801;28;20380;-68
2021/03/11 02:53:08;;;;;;;2.22;1.92;;;10.50;97.20;;;;;;5014278;28;20389;-67
2021/03/11 02:55:34;;;;;;;2.25;1.80;;;10.90;93.40;;;;;;5013613;28;20396;-72
2021/03/11 02:58:02;;;;;;;4.90;2.50;;;11.00;97.40;;;;;;5014560;28;20520;-66
2021/03/11 03:00:29;;;;;;;4.47;2.42;;;10.60;92.20;;;;;;5013841;28;20876;-67
2021/03/11 03:02:56;;;;;;;4.28;2.55;;;10.80;92.40;;;;;;5028510;28;20389;-67
2021/03/11 03:05:26;;;;;;;4.60;2.50;;;10.90;92.10;;;;;;5014050;28;20571;-67
2021/03/11 03:07:53;;;;;;;4.22;2.85;;;11.00;91.70;;;;;;5013249;28;20439;-67
2021/03/11 03:10:26;;;;;;;3.28;2.50;;;11.00;93.70;;;;;;5013937;28;20488;-67
2021/03/11 03:12:54;;;;;;;4.43;3.00;;;10.80;91.10;;;;;;5012966;28;20392;-67
2021/03/11 03:15:21;;;;;;;5.75;2.72;;;11.30;91.60;;;;;;5013816;28;20434;-67
2021/03/11 03:17:48;;;;;;;3.85;2.47;;;11.00;91.70;;;;;;5013008;28;20388;-66
2021/03/11 03:20:16;;;;;;;3.60;3.20;;;10.00;91.00;;;;;;5013611;28;20419;-67
2021/03/11 03:22:42;;;;;;;4.53;2.75;;;10.80;91.20;;;;;;5012928;28;20740;-68
2021/03/11 03:25:13;;;;;;;4.47;3.00;;;10.60;95.80;;;;;;5013433;28;20476;-67
2021/03/11 03:27:39;;;;;;;3.70;2.60;;;10.60;92.00;;;;;;5013095;28;20397;-67
2021/03/11 03:30:25;;;;;;;4.72;2.90;;;11.20;95.70;;;;;;5013562;28;20401;-67
2021/03/11 03:32:51;;;;;;;4.10;2.80;;;11.20;92.90;;;;;;5012150;28;20404;-66
2021/03/11 03:35:18;;;;;;;4.22;2.85;;;10.90;93.00;;;;;;5013581;28;20409;-67
2021/03/11 03:37:44;;;;;;;3.45;2.45;;;11.00;92.80;;;;;;5012689;28;20395;-67
2021/03/11 03:40:13;;;;;;;3.85;2.42;;;11.00;93.00;;;;;;5028106;28;20816;-67
2021/03/11 03:43:06;;;;;;;2.40;2.10;;;10.80;93.30;;;;;;5012523;28;20396;-68
2021/03/11 03:45:37;;;;;;;3.88;2.80;;;11.20;94.90;;;;;;5013319;28;20419;-67
2021/03/11 03:48:06;;;;;;;2.42;2.05;;;11.00;93.90;;;;;;5013396;28;20375;-67
2021/03/11 03:50:32;;;;;;;4.35;2.30;;;11.00;91.90;;;;;;5013513;28;20415;-66
2021/03/11 03:53:04;;;;;;;3.40;2.70;;;10.80;97.10;;;;;;5027575;28;20468;-67
2021/03/11 03:55:31;;;;;;;4.00;2.33;;;10.60;97.00;;;;;;5012872;28;20781;-66
2021/03/11 03:57:57;;;;;;;4.22;2.60;;;10.80;92.90;;;;;;5012541;28;20400;-68
2021/03/11 04:00:24;;;;;;;5.38;2.20;;;10.90;93.00;;;;;;5012202;28;20424;-66
2021/03/11 04:02:54;;;;;;;2.50;2.05;;;10.90;93.90;;;;;;5012549;28;20389;-67
2021/03/11 04:05:21;;;;;;;2.25;2.05;;;11.10;94.10;;;;;;5012653;28;20737;-67
2021/03/11 04:07:49;;;;;;;2.20;1.80;;;11.00;95.70;;;;;;5012174;28;20476;-67
2021/03/11 04:10:15;;;;;;;3.47;1.90;;;10.90;98.10;;;;;;5013141;28;20397;-67
2021/03/11 04:12:42;;;;;;;3.63;1.95;;;11.30;98.90;;;;;;5011815;28;20488;-67
2021/03/11 04:15:09;;;;;;;2.20;1.70;;;10.80;97.60;;;;;;5012763;28;20385;-67
2021/03/11 04:17:35;;;;;;;2.90;2.20;;;10.80;99.30;;;;;;5012675;28;20407;-67
2021/03/11 04:20:06;;;;;;;2.80;1.95;;;10.80;99.90;;;;;;5012088;28;20413;-67
2021/03/11 04:22:33;;;;;;;3.30;1.90;;;10.30;95.20;;;;;;5012550;28;20838;-68
2021/03/11 04:24:59;;;;;;;3.13;2.30;;;10.60;96.10;;;;;;5011647;28;20456;-67
2021/03/11 04:27:26;;;;;;;3.22;1.90;;;10.90;96.20;;;;;;5007931;28;20408;-73
2021/03/11 04:29:53;;;;;;;2.58;2.00;;;10.70;96.30;;;;;;5001270;28;20431;-71
2021/03/11 04:32:19;;;;;;;3.47;1.83;;;10.60;95.90;;;;;;5004956;28;20884;-71
2021/03/11 04:34:45;;;;;;;1.67;1.58;;;10.90;96.40;;;;;;5000519;28;20409;-68
2021/03/11 04:37:11;;;;;;;1.83;1.60;;;10.50;96.50;;;;;;5002741;28;20411;-69
2021/03/11 04:39:38;;;;;;;2.67;1.45;;;10.80;99.90;;;;;;5000633;28;20503;-72
2021/03/11 04:42:04;;;;;;;2.15;1.90;;;11.30;97.40;;;;;;5016121;28;20397;-67
2021/03/11 04:44:31;;;;;;;2.13;1.70;;;10.70;99.90;;;;;;5002622;28;20393;-68
2021/03/11 04:46:57;;;;;;;2.25;1.45;;;10.80;98.90;;;;;;5001909;28;20396;-70
2021/03/11 04:49:30;;;;;;;2.40;1.70;;;10.80;97.30;;;;;;4999531;28;20396;-67
2021/03/11 04:51:56;;;;;;;2.10;1.60;;;11.60;97.30;;;;;;4999235;28;20393;-70
2021/03/11 04:54:22;;;;;;;2.47;1.75;;;11.10;96.90;;;;;;5003148;28;20407;-69
2021/03/11 04:56:48;;;;;;;1.50;1.30;;;11.50;97.30;;;;;;5000475;28;20893;-68
2021/03/11 04:59:17;;;;;;;2.60;1.40;;;11.30;98.90;;;;;;4998929;28;20451;-68
2021/03/11 05:01:47;;;;;;;3.92;1.23;;;11.10;99.90;;;;;;5002714;28;20744;-73
2021/03/11 05:04:14;;;;;;;2.83;1.80;;;11.10;97.10;;;;;;5003143;28;20409;-72
2021/03/11 05:06:39;;;;;;;2.28;1.50;;;11.00;99.90;;;;;;5001543;28;20385;-73
2021/03/11 05:09:05;;;;;;;2.10;1.50;;;10.80;96.60;;;;;;5000846;28;20388;-71
2021/03/11 05:11:31;;;;;;;1.98;1.20;;;11.00;96.50;;;;;;5008122;28;20479;-70
2021/03/11 05:13:56;;;;;;;2.03;1.40;;;11.20;99.20;;;;;;5000062;28;20447;-70
2021/03/11 05:16:22;;;;;;;1.45;1.20;;;11.10;97.40;;;;;;5002700;28;20949;-70
2021/03/11 05:18:48;;;;;;;2.25;1.20;;;11.30;96.50;;;;;;5000073;28;20877;-70
2021/03/11 05:21:14;;;;;;;2.20;1.70;;;11.20;98.50;;;;;;5000629;28;20416;-69
2021/03/11 05:23:40;;;;;;;1.52;1.25;;;11.30;96.90;;;;;;5003000;28;20504;-72
2021/03/11 05:26:05;;;;;;;2.58;1.52;;;11.50;96.50;;;;;;5002892;28;20392;-73
2021/03/11 05:28:31;;;;;;;1.45;1.30;;;11.50;96.00;;;;;;4999721;28;20695;-68
2021/03/11 05:30:57;;;;;;;2.10;1.50;;;11.40;98.40;;;;;;5000861;28;20438;-69
2021/03/11 05:33:22;;;;;;;2.90;1.80;;;11.20;95.80;;;;;;5003276;28;20866;-70
2021/03/11 05:35:48;;;;;;;2.40;1.60;;;11.40;95.70;;;;;;5000466;28;20408;-69
2021/03/11 05:38:14;;;;;;;3.20;1.87;;;11.30;99.90;;;;;;5000732;28;20393;-72
2021/03/11 05:40:40;;;;;;;2.10;1.70;;;11.10;95.90;;;;;;5002536;28;20452;-73
2021/03/11 05:43:07;;;;;;;2.50;1.73;;;11.00;95.60;;;;;;5000783;28;20393;-68
2021/03/11 05:45:34;;;;;;;2.90;1.40;;;11.50;95.70;;;;;;5003250;28;20389;-72
2021/03/11 05:48:00;;;;;;;2.30;1.52;;;11.80;95.70;;;;;;5000413;28;20737;-72
2021/03/11 05:50:26;;;;;;;1.52;1.20;;;11.50;95.90;;;;;;5015505;28;20444;-69
2021/03/11 05:52:53;;;;;;;2.03;1.60;;;11.00;95.70;;;;;;4998602;28;20388;-70
2021/03/11 05:55:19;;;;;;;1.95;1.33;;;11.10;99.90;;;;;;5001892;28;20385;-70
2021/03/11 05:57:46;;;;;;;2.03;1.52;;;11.50;99.90;;;;;;4997238;28;20439;-74
2021/03/11 06:00:14;;;;;;;1.30;1.10;;;10.70;99.10;;;;;;4998947;28;20467;-69
2021/03/11 06:02:43;;;;;;;2.53;1.50;;;11.00;95.50;;;;;;5003031;28;20473;-72
2021/03/11 06:05:11;;;;;;;1.33;1.17;;;11.40;99.90;;;;;;5001376;28;20480;-69
2021/03/11 06:07:37;;;;;;;3.70;1.80;;;11.20;95.40;;;;;;4999547;28;20503;-72
2021/03/11 06:10:05;;;;;;;1.50;1.13;;;11.30;96.50;;;;;;5001092;28;20392;-69
2021/03/11 06:12:32;;;;;;;2.50;1.30;;;11.10;95.60;;;;;;5001287;28;20400;-68
2021/03/11 06:15:14;;;;;;;1.80;1.40;;;11.70;99.90;;;;;;5000407;28;20433;-68
2021/03/11 06:17:41;;;;;;;1.38;1.13;;;11.10;95.00;;;;;;4999204;28;20386;-72
2021/03/11 06:20:11;;;;;;;1.63;1.10;;;11.40;97.20;;;;;;5000797;28;20420;-71
2021/03/11 06:22:38;;;;;;;3.50;1.48;;;11.60;96.60;;;;;;4999701;28;20808;-69
2021/03/11 06:25:05;;;;;;;1.77;1.40;;;11.30;97.00;;;;;;5000546;28;20447;-72
2021/03/11 06:27:30;;;;;;;1.98;1.40;;;11.30;96.70;;;;;;4998026;28;20762;-74
2021/03/11 06:29:56;;;;;;;1.90;1.40;;;11.60;97.50;;;;;;4999151;28;20404;-68
2021/03/11 06:32:23;;;;;;;2.10;1.23;;;11.00;99.90;;;;;;5000706;28;20397;-73
2021/03/11 06:34:49;;;;;;;2.97;1.83;;;11.10;99.90;;;;;;4999594;28;20448;-70
2021/03/11 06:37:16;;;;;;;2.20;1.27;;;11.50;97.20;;;;;;5000419;28;20416;-68
2021/03/11 06:39:45;;;;;;;2.20;1.45;;;11.10;97.00;;;;;;4997923;28;21102;-72
2021/03/11 06:42:11;;;;;;;2.03;1.02;;;11.40;96.70;;;;;;5001101;28;20411;-72
2021/03/11 06:44:44;;;;;;;2.92;1.70;;;11.90;96.80;;;;;;4998722;28;20393;-68
2021/03/11 06:47:13;;;;;;;1.40;1.30;;;11.50;94.20;;;;;;4998965;28;20397;-69
2021/03/11 06:49:57;;;;;;;2.40;1.40;;;11.20;94.90;;;;;;4998786;28;20489;-71
2021/03/11 06:52:24;;;;;;;1.90;1.00;;;11.50;96.70;;;;;;5002149;28;20387;-69
2021/03/11 06:54:50;;;;;;;2.92;1.45;;;11.80;96.50;;;;;;5000168;28;20385;-70
2021/03/11 06:57:37;;;;;;;2.60;1.25;;;11.80;98.80;;;;;;5000193;28;20405;-69
2021/03/11 07:00:17;;;;;;;3.08;1.50;;;11.80;93.50;;;;;;4998682;28;20463;-71
2021/03/11 07:02:57;;;;;;;1.58;1.10;;;11.40;96.70;;;;;;5000646;28;20413;-71
2021/03/11 07:05:24;;;;;;;1.58;1.30;;;11.70;94.80;;;;;;5001510;28;20896;-68
2021/03/11 07:08:22;;;;;;;1.57;1.20;;;11.60;95.50;;;;;;4998085;28;20723;-68
2021/03/11 07:10:48;;;;;;;1.15;1.00;;;12.00;95.30;;;;;;4999612;28;20447;-72
2021/03/11 07:13:14;;;;;;;2.53;1.50;;;11.90;99.00;;;;;;5000140;28;20424;-69
2021/03/11 07:15:41;;;;;;;2.03;1.60;;;11.90;94.80;;;;;;5001403;28;20446;-72
2021/03/11 07:18:21;;;;;;;3.30;1.10;;;11.90;94.60;;;;;;4998368;28;20861;-69
2021/03/11 07:20:46;;;;;;;1.50;1.40;;;12.00;95.30;;;;;;4997360;28;20417;-74
2021/03/11 07:23:15;;;;;;;1.40;1.10;;;11.90;93.90;;;;;;4991150;28;20499;-70
2021/03/11 07:25:44;;;;;;;2.30;1.40;;;12.10;98.30;;;;;;4998241;28;20393;-73
2021/03/11 07:28:22;;;;;;;3.10;1.10;;;11.80;98.50;;;;;;5007359;28;20427;-68
2021/03/11 07:30:51;;;;;;;1.80;1.40;;;12.10;97.30;;;;;;4997707;28;20396;-73
2021/03/11 07:33:19;;;;;;;2.53;1.60;;;12.00;97.60;;;;;;4998452;28;20424;-70
2021/03/11 07:35:46;;;;;;;2.05;1.20;;;12.00;97.60;;;;;;5000170;28;20393;-75
2021/03/11 07:38:19;;;;;;;3.30;1.60;;;12.40;93.50;;;;;;4997181;28;20399;-72
2021/03/11 07:40:47;;;;;;;1.35;1.10;;;12.10;96.40;;;;;;5001992;28;20500;-72
2021/03/11 07:43:16;;;;;;;1.20;1.10;;;12.30;93.80;;;;;;5001758;28;20380;-71
2021/03/11 07:45:42;;;;;;;1.80;1.30;;;12.50;93.50;;;;;;4999577;28;20381;-70
2021/03/11 07:48:12;;;;;;;1.43;0.90;;;12.40;93.80;;;;;;5001691;28;20998;-70
2021/03/11 07:50:40;;;;;;;1.33;1.10;;;12.40;94.50;;;;;;5001682;28;20391;-74
2021/03/11 07:53:07;;;;;;;0.95;0.82;;;12.50;94.60;;;;;;4999354;28;20412;-72
2021/03/11 07:55:33;;;;;;;1.65;1.20;;;12.60;94.90;;;;;;5014212;28;20401;-70
2021/03/11 07:58:09;;;;;;;1.40;1.08;;;12.70;95.00;;;;;;4997350;28;20412;-70
2021/03/11 08:00:35;;;;;;;1.52;0.88;;;12.90;99.40;;;;;;5000311;28;20432;-73
2021/03/11 08:03:33;;;;;;;1.25;0.95;;;12.60;95.20;;;;;;5000101;28;21075;-69
2021/03/11 08:06:26;;;;;;;3.60;1.50;;;12.90;97.60;;;;;;4999025;28;20466;-69
2021/03/11 08:08:52;;;;;;;1.15;1.00;;;12.60;97.50;;;;;;4997771;28;20799;-74
2021/03/11 08:11:37;;;;;;;1.67;1.08;;;13.30;95.60;;;;;;5001085;28;20389;-71
2021/03/11 08:14:23;;;;;;;1.58;1.05;;;13.10;93.30;;;;;;5000298;28;20399;-70
2021/03/11 08:16:50;;;;;;;1.92;0.90;;;12.80;95.20;;;;;;4999970;28;20442;-73
2021/03/11 08:19:34;;;;;;;1.40;0.90;;;13.00;97.60;;;;;;4995001;28;20616;-71
2021/03/11 08:22:01;;;;;;;1.35;1.00;;;13.00;99.70;;;;;;4998444;28;21244;-71
2021/03/11 08:24:41;;;;;;;2.80;0.98;;;13.40;96.10;;;;;;5000799;28;20758;-71
2021/03/11 08:27:32;;;;;;;0.93;0.70;;;13.20;99.90;;;;;;5015031;28;20459;-71
2021/03/11 08:29:58;;;;;;;1.10;1.00;;;12.80;94.10;;;;;;4999997;28;21390;-73
2021/03/11 08:32:49;;;;;;;0.90;0.70;;;13.40;96.80;;;;;;4999015;28;20400;-69
2021/03/11 08:35:27;;;;;;;1.05;0.88;;;13.00;94.60;;;;;;4998271;28;20530;-70
2021/03/11 08:37:53;;;;;;;0.80;0.80;;;13.00;96.90;;;;;;4998625;28;20423;-72
2021/03/11 08:40:39;;;;;;;2.45;1.00;;;13.20;97.70;;;;;;5001010;28;20502;-72
2021/03/11 08:43:06;;;;;;;1.92;0.70;;;12.60;99.90;;;;;;4999598;28;20381;-68
2021/03/11 08:45:37;;;;;;;0.70;0.70;;;13.20;98.70;;;;;;4998616;28;20401;-70
2021/03/11 08:48:23;;;;;;;1.00;0.80;;;13.30;99.90;;;;;;5001371;28;20389;-69
2021/03/11 08:50:53;;;;;;;4.20;1.00;;;13.20;99.90;;;;;;5003279;28;20400;-71
2021/03/11 08:53:47;;;;;;;2.40;0.70;;;13.00;99.60;;;;;;5002717;28;21170;-67
2021/03/11 08:56:16;;;;;;;1.20;0.70;;;13.30;99.90;;;;;;5001499;28;20881;-69
2021/03/11 08:58:59;;;;;;;1.30;0.80;;;13.30;99.30;;;;;;4999533;28;20428;-73
2021/03/11 09:01:53;;;;;;;0.95;0.60;;;13.40;97.20;;;;;;5016167;28;20496;-71
2021/03/11 09:04:21;;;;;;;1.58;0.80;;;13.60;97.10;;;;;;5004048;28;20478;-70
2021/03/11 09:06:58;;;;;;;1.80;0.70;;;13.70;99.90;;;;;;5004029;28;20389;-71
2021/03/11 09:09:44;;;;;;;2.30;0.70;;;13.70;99.90;;;;;;5000876;28;20762;-69
2021/03/11 09:12:12;;;;;;;2.90;0.77;;;13.80;99.90;;;;;;5001064;28;20507;-68
2021/03/11 09:14:40;;;;;;;1.40;0.60;;;13.40;99.90;;;;;;5000817;28;20446;-70
2021/03/11 09:17:11;;;;;;;0.70;0.60;;;13.50;99.90;;;;;;5002967;28;20443;-70
2021/03/11 09:19:47;;;;;;;1.00;0.50;;;12.90;99.90;;;;;;4994855;28;21256;-71
2021/03/11 09:22:29;;;;;;;0.73;0.50;;;13.20;99.90;;;;;;4996388;28;20388;-70
2021/03/11 09:24:58;;;;;;;0.88;0.60;;;13.30;99.90;;;;;;4998261;28;20393;-73
2021/03/11 09:27:29;;;;;;;1.10;0.57;;;13.50;99.90;;;;;;4998828;28;21178;-73
2021/03/11 09:30:08;;;;;;;1.45;0.50;;;13.30;99.90;;;;;;4998365;28;20707;-74
2021/03/11 09:32:35;;;;;;;0.90;0.60;;;13.50;99.90;;;;;;4997294;28;20405;-74
2021/03/11 09:35:11;;;;;;;2.10;0.50;;;13.60;99.90;;;;;;4998792;28;20785;-72
2021/03/11 09:37:46;;;;;;;0.90;0.50;;;13.70;99.90;;;;;;4998022;28;20415;-70
2021/03/11 09:40:35;;;;;;;1.20;0.50;;;13.70;99.90;;;;;;4997908;28;20479;-71
2021/03/11 09:43:04;;;;;;;1.80;0.50;;;13.60;99.90;;;;;;4997286;28;20964;-69
2021/03/11 09:46:07;;;;;;;0.60;0.40;;;13.60;99.90;;;;;;4998597;28;20404;-72
2021/03/11 09:48:42;;;;;;;0.50;0.50;;;14.00;99.50;;;;;;4953813;28;20868;-69
2021/03/11 09:51:11;;;;;;;0.80;0.40;;;14.10;99.00;;;;;;4991080;28;21441;-70
2021/03/11 09:53:55;;;;;;;0.60;0.50;;;14.40;99.90;;;;;;4997319;28;20389;-73
2021/03/11 09:56:22;;;;;;;0.95;0.60;;;13.90;97.20;;;;;;4996742;28;20463;-70
2021/03/11 09:58:57;;;;;;;4.03;0.40;;;14.10;99.00;;;;;;4994288;28;20393;-72
2021/03/11 10:01:34;;;;;;;0.75;0.43;;;14.70;99.90;;;;;;4998438;28;20428;-72
2021/03/11 10:04:14;;;;;;;1.20;0.40;;;14.00;99.90;;;;;;4997433;28;20401;-72
2021/03/11 10:06:56;;;;;;;0.40;0.30;;;14.30;99.70;;;;;;4998481;28;20393;-69
2021/03/11 10:09:23;;;;;;;0.40;0.30;;;14.20;99.90;;;;;;4995120;28;20405;-69
2021/03/11 10:11:54;;;;;;;0.70;0.50;;;14.60;99.90;;;;;;4997325;28;20602;-69
2021/03/11 10:14:28;;;;;;;1.10;0.57;;;14.30;99.90;;;;;;4998322;28;20465;-72
2021/03/11 10:16:59;;;;;;;0.80;0.50;;;14.40;99.90;;;;;;5013357;28;20408;-74
2021/03/11 10:19:35;;;;;;;0.70;0.50;;;14.30;99.90;;;;;;4994135;28;20425;-70
2021/03/11 10:22:03;;;;;;;0.40;0.40;;;14.50;99.90;;;;;;4997032;28;20460;-71
2021/03/11 10:24:38;;;;;;;0.40;0.30;;;14.70;99.90;;;;;;4999061;28;20397;-74
2021/03/11 10:27:28;;;;;;;0.80;0.57;;;14.30;99.90;;;;;;4996635;28;21120;-70
2021/03/11 10:30:08;;;;;;;1.60;0.50;;;14.60;99.90;;;;;;4986933;28;20777;-76
2021/03/11 10:32:36;;;;;;;1.80;0.50;;;13.70;99.90;;;;;;5011227;28;21101;-71
2021/03/11 10:35:04;;;;;;;0.80;0.40;;;14.60;99.90;;;;;;4997984;28;20416;-72
2021/03/11 10:37:35;;;;;;;0.60;0.40;;;14.30;99.90;;;;;;4996973;28;20420;-73
2021/03/11 10:40:05;;;;;;;0.53;0.40;;;14.60;99.90;;;;;;4995359;28;20543;-73
2021/03/11 10:42:49;;;;;;;0.60;0.40;;;14.20;99.90;;;;;;5013432;28;20403;-72
2021/03/11 10:45:20;;;;;;;0.63;0.40;;;14.70;99.90;;;;;;4997354;28;20593;-69
2021/03/11 10:47:58;;;;;;;1.85;0.57;;;14.50;99.90;;;;;;4996979;28;20929;-70
2021/03/11 10:50:24;;;;;;;1.60;0.60;;;14.50;99.90;;;;;;4996452;28;20405;-70
2021/03/11 10:52:51;;;;;;;0.90;0.60;;;14.10;99.90;;;;;;4996662;28;20401;-70
2021/03/11 10:55:28;;;;;;;1.23;0.40;;;14.00;99.90;;;;;;4998121;28;21132;-71
2021/03/11 10:57:54;;;;;;;0.68;0.50;;;14.30;99.90;;;;;;4994784;28;20838;-75
2021/03/11 11:00:28;;;;;;;0.50;0.50;;;14.30;99.90;;;;;;4995028;28;20413;-72
2021/03/11 11:02:59;;;;;;;0.63;0.40;;;14.10;99.90;;;;;;4997947;28;20478;-73
2021/03/11 11:05:26;;;;;;;1.80;0.68;;;14.20;99.90;;;;;;5012001;28;20405;-74
2021/03/11 11:07:52;;;;;;;3.38;0.70;;;13.40;99.90;;;;;;4994676;28;21152;-70
2021/03/11 11:10:27;;;;;;;0.70;0.60;;;13.70;99.90;;;;;;4999495;28;20440;-72
2021/03/11 11:12:52;;;;;;;1.08;0.60;;;14.00;99.90;;;;;;5002934;28;20745;-68
2021/03/11 11:15:19;;;;;;;0.80;0.57;;;13.80;99.90;;;;;;4999232;28;20385;-69
2021/03/11 11:17:45;;;;;;;1.50;0.60;;;14.00;99.90;;;;;;4998889;28;20475;-72
2021/03/11 11:20:16;;;;;;;0.73;0.50;;;14.30;99.90;;;;;;4999085;28;20416;-69
2021/03/11 11:22:42;;;;;;;2.53;0.85;;;14.10;99.90;;;;;;5000624;28;20400;-68
2021/03/11 11:25:09;;;;;;;0.80;0.70;;;14.20;99.90;;;;;;4999120;28;20397;-70
2021/03/11 11:27:35;;;;;;;1.10;0.80;;;14.30;99.90;;;;;;5014909;28;20405;-71
2021/03/11 11:30:04;;;;;;;1.80;0.70;;;14.10;99.90;;;;;;4999997;28;20392;-74
2021/03/11 11:32:29;;;;;;;0.73;0.60;;;14.20;99.90;;;;;;5000940;28;20515;-70
2021/03/11 11:34:55;;;;;;;1.13;0.70;;;13.90;99.90;;;;;;5001316;28;20492;-71
2021/03/11 11:37:21;;;;;;;1.60;0.87;;;14.30;99.90;;;;;;5000097;28;20452;-71
2021/03/11 11:39:49;;;;;;;1.38;0.70;;;14.00;99.90;;;;;;4998794;28;21283;-71
2021/03/11 11:42:15;;;;;;;0.68;0.52;;;14.30;99.90;;;;;;5001013;28;21416;-69
2021/03/11 11:44:41;;;;;;;0.73;0.70;;;14.10;99.90;;;;;;4999952;28;20389;-69
2021/03/11 11:47:07;;;;;;;1.00;0.70;;;14.40;99.90;;;;;;5000317;28;20389;-69
2021/03/11 11:49:33;;;;;;;2.60;0.63;;;14.40;99.90;;;;;;4998716;28;20399;-71
2021/03/11 11:52:00;;;;;;;0.90;0.70;;;14.10;99.90;;;;;;4999733;28;20404;-73
2021/03/11 11:54:26;;;;;;;1.10;0.70;;;14.50;99.90;;;;;;5000822;28;20421;-73
2021/03/11 11:56:52;;;;;;;0.90;0.60;;;14.50;99.90;;;;;;5001780;28;20412;-72
2021/03/11 11:59:19;;;;;;;0.60;0.50;;;14.20;99.90;;;;;;4998569;28;21203;-69
2021/03/11 12:01:45;;;;;;;1.73;0.60;;;14.50;99.90;;;;;;5000106;28;20416;-70
2021/03/11 12:04:11;;;;;;;1.50;0.90;;;14.40;99.90;;;;;;5001175;28;20429;-70
2021/03/11 12:06:38;;;;;;;0.75;0.60;;;14.60;99.90;;;;;;5014107;28;20868;-69
2021/03/11 12:09:04;;;;;;;0.85;0.60;;;14.30;99.90;;;;;;4997562;28;20480;-72
2021/03/11 12:11:30;;;;;;;1.20;0.80;;;13.70;99.90;;;;;;5002056;28;20830;-69
2021/03/11 12:13:56;;;;;;;0.70;0.55;;;14.40;99.90;;;;;;5010687;28;20393;-69
2021/03/11 12:16:21;;;;;;;1.00;0.80;;;14.60;99.90;;;;;;5007689;28;20379;-72
2021/03/11 12:18:47;;;;;;;1.20;0.70;;;14.50;99.90;;;;;;5010976;28;20389;-68
2021/03/11 12:21:13;;;;;;;0.90;0.60;;;14.30;99.90;;;;;;5008127;28;20439;-69
2021/03/11 12:23:39;;;;;;;0.98;0.80;;;14.30;99.90;;;;;;5008302;28;20396;-70
2021/03/11 12:26:05;;;;;;;1.10;0.70;;;14.20;99.90;;;;;;5008084;28;20420;-70
2021/03/11 12:28:30;;;;;;;1.80;0.95;;;14.40;99.90;;;;;;5009760;28;20389;-71
2021/03/11 12:30:56;;;;;;;1.57;0.70;;;14.60;99.90;;;;;;5007376;28;21092;-70
2021/03/11 12:33:22;;;;;;;0.82;0.63;;;14.40;99.90;;;;;;5004023;28;20385;-69
2021/03/11 12:35:48;;;;;;;1.27;0.90;;;14.60;99.90;;;;;;5008010;28;20999;-70
2021/03/11 12:38:14;;;;;;;1.00;0.80;;;14.40;99.90;;;;;;5007518;28;20392;-69
2021/03/11 12:40:41;;;;;;;0.80;0.50;;;14.40;99.90;;;;;;5008072;28;20412;-68
2021/03/11 12:43:07;;;;;;;0.90;0.70;;;14.70;99.90;;;;;;5007826;28;20436;-74
2021/03/11 12:45:33;;;;;;;1.25;0.70;;;14.70;99.90;;;;;;5007972;28;20483;-69
2021/03/11 12:47:58;;;;;;;1.00;0.80;;;14.30;99.90;;;;;;5007941;28;20385;-71
2021/03/11 12:50:24;;;;;;;1.60;0.70;;;14.70;99.90;;;;;;5006225;28;20389;-73
2021/03/11 12:52:51;;;;;;;1.80;0.63;;;14.50;99.90;;;;;;5008512;28;20407;-69
2021/03/11 12:55:17;;;;;;;1.60;0.73;;;14.90;99.90;;;;;;5007414;28;20381;-70
2021/03/11 12:57:45;;;;;;;1.10;1.00;;;14.70;99.90;;;;;;5022976;28;20408;-68
2021/03/11 13:00:14;;;;;;;1.50;0.73;;;14.70;99.90;;;;;;5007129;28;20482;-69